Time;durP1;ratioP1;P1;durP2;ratioP2;P2;SDS_P1;SDS_P2;PMS_P1;PMS_P2;Temp;Humidity;BMP_temperature;BMP_pressure;BME280_temperature;BME280_humidity;BME280_pressure;Samples;Min_cycle;Max_cycle;Signal;HPM_P1;HPM_P2
2022/12/13 00:00:36;;;;;;;3.85;3.27;;;;;;;-1.20;79.80;100252.95;1690528;82;21029;-76
2022/12/13 00:03:21;;;;;;;3.80;3.03;;;;;;;-1.24;79.73;100246.09;1692333;82;21891;-76
2022/12/13 00:06:08;;;;;;;3.35;3.02;;;;;;;-1.25;79.79;100250.71;1690933;82;21434;-76
2022/12/13 00:08:53;;;;;;;4.10;3.60;;;;;;;-1.26;79.79;100256.19;1694793;81;21493;-77
2022/12/13 00:11:38;;;;;;;2.80;2.60;;;;;;;-1.27;79.81;100249.81;1696619;82;21425;-77
2022/12/13 00:14:23;;;;;;;3.75;3.10;;;;;;;-1.27;79.80;100244.33;1697829;81;20913;-76
2022/12/13 00:17:08;;;;;;;4.10;3.08;;;;;;;-1.26;79.82;100250.27;1694379;81;21437;-76
2022/12/13 00:19:53;;;;;;;3.90;3.05;;;;;;;-1.26;79.78;100256.60;1699588;81;20905;-77
2022/12/13 00:22:38;;;;;;;3.20;2.58;;;;;;;-1.28;79.72;100256.97;1694631;81;21422;-77
2022/12/13 00:25:22;;;;;;;5.53;3.15;;;;;;;-1.30;79.70;100256.07;1696973;81;21512;-76
2022/12/13 00:28:08;;;;;;;4.47;3.50;;;;;;;-1.31;79.72;100260.29;1694663;81;20917;-77
2022/12/13 00:30:58;;;;;;;4.42;3.22;;;;;;;-1.30;79.73;100255.66;1696408;81;21333;-76
2022/12/13 00:33:43;;;;;;;3.33;2.85;;;;;;;-1.26;79.76;100259.14;1696805;82;21528;-76
2022/12/13 00:36:28;;;;;;;5.75;3.50;;;;;;;-1.27;79.69;100262.08;1682662;82;20997;-76
2022/12/13 00:39:15;;;;;;;3.60;3.10;;;;;;;-1.29;79.66;100261.19;1696896;81;21468;-76
2022/12/13 00:41:59;;;;;;;4.65;3.12;;;;;;;-1.32;79.65;100253.50;1697823;82;21464;-76
2022/12/13 00:44:45;;;;;;;3.70;3.33;;;;;;;-1.34;79.62;100258.94;1696903;81;20893;-76
2022/12/13 00:47:30;;;;;;;4.62;3.52;;;;;;;-1.37;79.63;100261.39;1696484;82;21544;-77
2022/12/13 00:50:15;;;;;;;6.28;3.83;;;;;;;-1.39;79.64;100257.55;1698124;82;20917;-76
2022/12/13 00:53:01;;;;;;;4.10;3.47;;;;;;;-1.40;79.64;100254.56;1694649;81;20921;-76
2022/12/13 00:55:46;;;;;;;4.85;3.55;;;;;;;-1.44;79.52;100257.84;1698233;81;20978;-76
2022/12/13 00:58:31;;;;;;;4.40;3.60;;;;;;;-1.45;79.58;100265.41;1697702;81;21296;-76
2022/12/13 01:01:23;;;;;;;4.05;3.35;;;;;;;-1.53;79.49;100266.47;1697750;81;21576;-76
2022/12/13 01:04:08;;;;;;;5.58;3.60;;;;;;;-1.56;79.49;100278.23;1696761;81;20960;-76
2022/12/13 01:06:54;;;;;;;4.58;3.20;;;;;;;-1.59;79.51;100274.34;1696121;81;20937;-76
2022/12/13 01:09:41;;;;;;;5.03;3.20;;;;;;;-1.62;79.53;100270.05;1696781;82;25238;-76
2022/12/13 01:12:25;;;;;;;3.50;3.15;;;;;;;-1.64;79.50;100262.81;1696858;81;20988;-76
2022/12/13 01:15:10;;;;;;;4.83;3.27;;;;;;;-1.69;79.45;100258.88;1696793;82;21500;-76
2022/12/13 01:17:55;;;;;;;4.12;3.10;;;;;;;-1.70;79.48;100267.71;1696120;82;20948;-77
2022/12/13 01:20:40;;;;;;;5.20;3.67;;;;;;;-1.72;79.48;100263.87;1695424;81;21318;-76
2022/12/13 01:23:26;;;;;;;3.50;3.17;;;;;;;-1.75;79.45;100262.52;1646490;84;20903;-76
2022/12/13 01:26:13;;;;;;;;;;;;;;;-1.77;79.46;100260.34;1696831;81;20874;-76
2022/12/13 01:28:59;;;;;;;3.98;2.87;;;;;;;-1.77;79.35;100273.02;1697023;81;20429;-76
2022/12/13 01:31:44;;;;;;;3.83;3.27;;;;;;;-1.79;79.40;100263.66;1696557;81;20974;-77
2022/12/13 01:34:29;;;;;;;4.37;3.27;;;;;;;-1.80;79.38;100255.59;1696918;81;20916;-77
2022/12/13 01:37:16;;;;;;;4.53;3.08;;;;;;;-1.83;79.33;100253.84;1695434;81;20889;-77
2022/12/13 01:40:00;;;;;;;3.85;3.02;;;;;;;-1.83;79.39;100250.45;1695730;80;21329;-76
2022/12/13 01:42:45;;;;;;;4.00;3.60;;;;;;;-1.85;79.32;100251.67;1697551;81;20917;-76
2022/12/13 01:45:30;;;;;;;3.73;3.33;;;;;;;-1.84;79.40;100248.73;1697294;82;20961;-76
2022/12/13 01:48:28;;;;;;;5.08;3.45;;;;;;;-1.84;79.37;100256.33;1697318;81;20945;-76
2022/12/13 01:51:17;;;;;;;5.30;2.72;;;;;;;-1.84;79.35;100260.13;1694992;81;21417;-76
2022/12/13 01:54:05;;;;;;;3.58;2.92;;;;;;;-1.87;79.36;100258.78;1697552;82;21467;-77
2022/12/13 01:56:55;;;;;;;3.75;3.12;;;;;;;-1.88;79.32;100264.25;1696762;82;20877;-76
2022/12/13 01:59:41;;;;;;;3.98;3.62;;;;;;;-1.86;79.40;100265.16;1697154;82;20897;-76
2022/12/13 02:02:26;;;;;;;3.12;2.80;;;;;;;-1.86;79.35;100262.62;1698543;82;20929;-77
2022/12/13 02:05:22;;;;;;;5.70;2.87;;;;;;;-1.86;79.36;100265.56;1697730;82;20894;-76
2022/12/13 02:08:10;;;;;;;5.78;3.62;;;;;;;-1.89;79.24;100259.14;1699202;81;20965;-76
2022/12/13 02:10:57;;;;;;;3.52;3.15;;;;;;;-1.92;79.28;100262.45;1690207;83;20885;-76
2022/12/13 02:13:41;;;;;;;4.75;3.25;;;;;;;-1.94;79.29;100265.34;1695705;82;20910;-76
2022/12/13 02:16:47;;;;;;;2.92;2.67;;;;;;;-1.96;79.27;100261.05;1697493;83;20925;-77
2022/12/13 02:20:02;;;;;;;3.08;2.77;;;;;;;-1.99;79.24;100256.75;1697467;82;20974;-76
2022/12/13 02:23:01;;;;;;;3.42;2.80;;;;;;;-2.01;79.22;100259.66;1696418;82;20929;-77
2022/12/13 02:26:22;;;;;;;4.65;3.10;;;;;;;-2.06;79.24;100255.72;1675705;83;21027;-76
2022/12/13 02:29:44;;;;;;;5.22;3.00;;;;;;;-2.08;79.21;100255.26;1674873;83;21964;-77
2022/12/13 02:32:54;;;;;;;3.92;2.92;;;;;;;-2.11;79.21;100259.83;1674500;83;21055;-77
2022/12/13 02:36:02;;;;;;;3.33;3.02;;;;;;;-2.11;79.22;100262.77;1670497;83;21027;-76
2022/12/13 02:39:07;;;;;;;5.65;3.33;;;;;;;-2.10;79.24;100255.21;1675324;83;20936;-76
2022/12/13 02:41:57;;;;;;;3.37;3.07;;;;;;;-2.10;79.22;100253.95;1675177;83;21526;-76
2022/12/13 02:44:49;;;;;;;5.15;3.35;;;;;;;-2.10;79.17;100252.67;1674511;83;20956;-76
2022/12/13 02:47:36;;;;;;;4.00;3.58;;;;;;;-2.08;79.23;100252.72;1675436;83;21067;-77
2022/12/13 02:50:24;;;;;;;4.40;4.00;;;;;;;-2.11;79.15;100260.23;1636320;85;20966;-76
2022/12/13 02:53:11;;;;;;;5.50;4.03;;;;;;;-2.13;79.14;100260.19;1675181;83;21428;-76
2022/12/13 02:55:55;;;;;;;5.12;3.98;;;;;;;-2.10;79.21;100261.55;1674727;83;21687;-76
2022/12/13 02:58:45;;;;;;;6.80;4.35;;;;;;;-2.10;79.19;100257.74;1675068;83;20947;-76
2022/12/13 03:01:59;;;;;;;5.58;4.15;;;;;;;-2.12;79.14;100262.31;1679679;83;20902;-76
2022/12/13 03:08:24;;;;;;;4.37;3.45;;;;;;;-2.13;79.07;100270.73;1697640;82;20981;-76
2022/12/13 03:11:13;;;;;;;4.08;3.67;;;;;;;-2.15;79.12;100264.75;1686259;82;20901;-76
2022/12/13 03:14:05;;;;;;;5.17;3.92;;;;;;;-2.15;79.10;100260.95;1696051;82;20958;-76
2022/12/13 03:16:52;;;;;;;4.80;3.92;;;;;;;-2.17;79.10;100265.98;1692961;82;21001;-76
2022/12/13 03:19:37;;;;;;;5.72;4.45;;;;;;;-2.17;79.08;100262.18;1693456;82;20954;-77
2022/12/13 03:22:22;;;;;;;5.97;3.53;;;;;;;-2.18;79.06;100266.79;1693463;82;21391;-77
2022/12/13 03:25:08;;;;;;;6.42;3.85;;;;;;;-2.17;79.05;100257.11;1692984;82;20901;-76
2022/12/13 03:27:53;;;;;;;6.05;3.77;;;;;;;-2.17;79.07;100262.18;1683505;83;21236;-77
2022/12/13 03:30:38;;;;;;;4.77;3.83;;;;;;;-2.18;79.10;100252.86;1693086;82;20905;-77
2022/12/13 03:33:23;;;;;;;4.60;3.77;;;;;;;-2.15;79.05;100265.61;1691720;82;20893;-77
2022/12/13 03:36:09;;;;;;;6.33;3.65;;;;;;;-2.15;79.07;100256.75;1692813;82;21490;-77
2022/12/13 03:38:55;;;;;;;5.08;4.58;;;;;;;-2.17;79.03;100253.31;1681119;82;20937;-76
2022/12/13 03:41:40;;;;;;;4.85;3.50;;;;;;;-2.16;79.04;100242.77;1692427;82;20949;-76
2022/12/13 03:44:25;;;;;;;4.83;4.33;;;;;;;-2.17;79.02;100244.45;1692427;82;21520;-76
2022/12/13 03:47:10;;;;;;;5.47;4.25;;;;;;;-2.19;78.95;100246.48;1690441;82;21004;-77
2022/12/13 03:49:56;;;;;;;4.63;4.13;;;;;;;-2.23;78.96;100267.47;1690215;82;21553;-77
2022/12/13 03:52:40;;;;;;;6.00;4.20;;;;;;;-2.23;79.00;100261.14;1692792;82;20953;-76
2022/12/13 03:55:27;;;;;;;4.37;3.97;;;;;;;-2.24;79.02;100262.81;1694780;82;20984;-76
2022/12/13 03:58:11;;;;;;;4.87;3.45;;;;;;;-2.23;79.00;100267.06;1692475;82;21017;-76
2022/12/13 04:00:56;;;;;;;4.95;3.75;;;;;;;-2.22;79.03;100271.31;1691625;82;21561;-76
2022/12/13 04:03:45;;;;;;;4.45;4.00;;;;;;;-2.21;79.00;100260.78;1693008;82;21314;-77
2022/12/13 04:06:30;;;;;;;5.45;4.47;;;;;;;-2.19;79.02;100260.41;1694378;81;20971;-77
2022/12/13 04:09:15;;;;;;;6.00;4.40;;;;;;;-2.18;79.02;100262.13;1694011;82;20897;-77
2022/12/13 04:15:04;;;;;;;4.78;4.28;;;;;;;-2.17;79.00;100258.38;1695017;82;21872;-76
2022/12/13 04:17:49;;;;;;;;;;;;;;;-2.15;79.01;100260.55;1697444;82;20977;-76
2022/12/13 04:20:33;;;;;;;4.97;3.85;;;;;;;-2.14;78.91;100257.61;1693863;81;20459;-76
2022/12/13 04:23:18;;;;;;;4.22;3.65;;;;;;;-2.13;78.99;100259.33;1696984;81;20945;-75
2022/12/13 04:26:03;;;;;;;5.85;3.72;;;;;;;-2.17;78.92;100254.58;1698160;81;20981;-76
2022/12/13 04:28:48;;;;;;;3.98;3.58;;;;;;;-2.18;78.95;100252.00;1702316;82;473161;-75
2022/12/13 04:31:33;;;;;;;4.28;3.60;;;;;;;-2.19;78.94;100249.02;1723522;82;20937;-74
2022/12/13 04:34:18;;;;;;;4.95;4.05;;;;;;;-2.25;78.88;100249.70;1684840;83;20962;-75
2022/12/13 04:37:03;;;;;;;4.67;3.72;;;;;;;-2.29;78.85;100255.89;1656854;84;20985;-76
2022/12/13 04:39:48;;;;;;;5.60;3.70;;;;;;;-2.32;78.92;100254.53;1657478;85;20942;-75
2022/12/13 04:42:33;;;;;;;4.15;3.67;;;;;;;-2.34;78.93;100250.69;1658196;85;20957;-75
2022/12/13 04:45:18;;;;;;;3.80;3.37;;;;;;;-2.34;78.94;100259.14;1683863;83;20942;-75
2022/12/13 04:48:03;;;;;;;4.72;3.98;;;;;;;-2.33;78.91;100256.20;1689296;83;20950;-75
2022/12/13 04:50:48;;;;;;;4.08;3.55;;;;;;;-2.33;78.96;100254.94;1684617;83;21446;-76
2022/12/13 04:53:33;;;;;;;5.12;4.12;;;;;;;-2.32;78.97;100250.33;1685855;82;20950;-76
2022/12/13 04:56:18;;;;;;;4.92;3.70;;;;;;;-2.31;78.93;100252.05;1686030;83;20926;-76
2022/12/13 04:59:03;;;;;;;4.17;3.50;;;;;;;-2.28;79.00;100249.61;1666344;84;20962;-76
2022/12/13 05:01:48;;;;;;;6.20;3.97;;;;;;;-2.24;78.98;100254.36;1659188;84;21546;-76
2022/12/13 05:04:33;;;;;;;4.87;4.03;;;;;;;-2.26;78.87;100251.78;1666247;84;21313;-76
2022/12/13 05:07:18;;;;;;;4.33;3.62;;;;;;;-2.27;78.91;100247.52;1664465;84;21589;-79
2022/12/13 05:10:04;;;;;;;6.20;4.05;;;;;;;-2.30;78.86;100247.44;1668922;84;20958;-82
2022/12/13 05:12:49;;;;;;;6.17;3.90;;;;;;;-2.32;78.87;100250.33;1668096;84;21634;-77
2022/12/13 05:15:34;;;;;;;4.67;3.72;;;;;;;-2.33;78.91;100242.28;1668911;84;21355;-75
2022/12/13 05:18:19;;;;;;;5.55;4.15;;;;;;;-2.34;78.85;100245.22;1667959;84;21565;-76
2022/12/13 05:21:07;;;;;;;4.65;3.65;;;;;;;-2.34;78.92;100251.95;1668442;84;20918;-76
2022/12/13 05:23:51;;;;;;;4.30;3.80;;;;;;;-2.35;78.93;100248.56;1669714;84;20934;-75
2022/12/13 05:26:36;;;;;;;4.55;3.92;;;;;;;-2.32;78.97;100255.39;1669669;83;21846;-76
2022/12/13 05:29:21;;;;;;;4.37;3.72;;;;;;;-2.29;78.92;100254.22;1668091;84;21501;-76
2022/12/13 05:32:06;;;;;;;5.20;4.10;;;;;;;-2.29;78.90;100251.69;1670338;84;21034;-76
2022/12/13 05:34:51;;;;;;;5.05;4.25;;;;;;;-2.26;78.97;100250.52;1666593;84;21043;-76
2022/12/13 05:37:36;;;;;;;5.20;4.03;;;;;;;-2.24;78.94;100250.15;1671631;84;20949;-76
2022/12/13 05:40:30;;;;;;;5.93;4.30;;;;;;;-2.24;78.92;100254.36;1671465;84;20910;-75
2022/12/13 05:43:15;;;;;;;6.50;4.17;;;;;;;-2.22;78.93;100261.19;1666319;84;21924;-76
2022/12/13 05:46:00;;;;;;;5.47;4.28;;;;;;;-2.19;78.96;100259.15;1663585;84;21053;-75
2022/12/13 05:48:45;;;;;;;4.80;4.15;;;;;;;-2.17;78.94;100263.45;1667583;84;21096;-76
2022/12/13 05:51:30;;;;;;;6.17;4.00;;;;;;;-2.20;78.85;100261.23;1665128;84;21033;-76
2022/12/13 05:54:15;;;;;;;5.00;4.05;;;;;;;-2.19;78.93;100268.88;1673154;84;20930;-76
2022/12/13 05:57:00;;;;;;;3.63;3.03;;;;;;;-2.17;78.95;100265.98;1652911;85;21410;-76
2022/12/13 05:59:45;;;;;;;6.30;4.42;;;;;;;-2.16;78.96;100262.62;1662786;84;21673;-76
2022/12/13 06:02:30;;;;;;;5.12;3.77;;;;;;;-2.16;78.90;100266.43;1662379;85;21406;-76
2022/12/13 06:05:15;;;;;;;5.85;4.05;;;;;;;-2.15;78.91;100263.48;1662747;85;20922;-76
2022/12/13 06:08:00;;;;;;;5.95;4.20;;;;;;;-2.17;78.89;100257.11;1678287;84;20922;-76
2022/12/13 06:10:45;;;;;;;5.62;4.33;;;;;;;-2.15;78.94;100261.81;1671426;84;21482;-76
2022/12/13 06:13:30;;;;;;;4.65;4.22;;;;;;;-2.16;78.91;100262.62;1667395;84;20969;-76
2022/12/13 06:16:14;;;;;;;4.50;3.80;;;;;;;-2.14;78.97;100272.80;1665894;84;20942;-76
2022/12/13 06:18:59;;;;;;;5.37;4.12;;;;;;;-2.12;78.94;100273.71;1666038;84;21472;-76
2022/12/13 06:21:44;;;;;;;4.62;3.98;;;;;;;-2.12;78.91;100271.17;1668042;84;21013;-76
2022/12/13 06:24:29;;;;;;;4.83;3.83;;;;;;;-2.12;78.95;100269.50;1665847;84;20970;-76
2022/12/13 06:27:14;;;;;;;4.60;3.83;;;;;;;-2.09;78.92;100267.47;1665818;84;21273;-76
2022/12/13 06:29:59;;;;;;;4.90;3.55;;;;;;;-2.10;78.92;100270.41;1670305;84;21439;-76
2022/12/13 06:32:49;;;;;;;6.35;3.65;;;;;;;-2.10;78.90;100272.94;1665781;84;21053;-75
2022/12/13 06:35:34;;;;;;;4.45;3.52;;;;;;;-2.11;78.92;100267.42;1669348;84;20918;-76
2022/12/13 06:38:19;;;;;;;4.92;4.17;;;;;;;-2.10;78.86;100275.88;1667744;84;21029;-76
2022/12/13 06:41:10;;;;;;;5.85;4.08;;;;;;;-2.10;78.92;100283.08;1670313;84;21597;-76
2022/12/13 06:43:55;;;;;;;6.40;4.20;;;;;;;-2.08;78.91;100280.59;1668811;84;21541;-76
2022/12/13 06:46:40;;;;;;;4.55;3.75;;;;;;;-2.09;78.90;100283.53;1666780;84;21339;-76
2022/12/13 06:49:24;;;;;;;5.30;3.98;;;;;;;-2.09;78.82;100283.94;1664893;84;21614;-76
2022/12/13 06:52:11;;;;;;;5.75;4.17;;;;;;;-2.09;78.91;100288.59;1664511;83;21320;-76
2022/12/13 06:54:56;;;;;;;5.85;4.78;;;;;;;-2.06;78.92;100291.19;1665482;84;21431;-76
2022/12/13 06:57:42;;;;;;;5.30;4.47;;;;;;;-2.04;78.93;100299.69;1667134;84;21022;-76
2022/12/13 07:00:27;;;;;;;4.58;4.10;;;;;;;-2.03;78.86;100296.75;1666373;84;21878;-76
2022/12/13 07:03:12;;;;;;;4.53;3.85;;;;;;;-2.03;78.85;100302.67;1665826;84;20949;-76
2022/12/13 07:05:59;;;;;;;6.00;4.25;;;;;;;-2.02;78.86;100312.39;1663106;84;20962;-76
2022/12/13 07:08:51;;;;;;;5.72;4.62;;;;;;;-2.01;78.85;100314.98;1664692;84;20989;-75
2022/12/13 07:11:36;;;;;;;5.50;3.20;;;;;;;-1.97;78.88;100317.60;1662981;84;21755;-76
2022/12/13 07:14:21;;;;;;;5.17;3.47;;;;;;;-1.98;78.86;100307.87;1665151;84;20934;-76
2022/12/13 07:17:06;;;;;;;6.00;4.00;;;;;;;-2.00;78.84;100315.42;1662064;84;21589;-76
2022/12/13 07:19:51;;;;;;;8.75;3.85;;;;;;;-1.96;78.95;100315.11;1665063;84;20997;-76
2022/12/13 07:22:37;;;;;;;4.17;3.67;;;;;;;-1.96;78.89;100316.38;1665443;84;21476;-76
2022/12/13 07:25:22;;;;;;;4.50;4.10;;;;;;;-1.97;78.86;100318.87;1667856;84;20918;-76
2022/12/13 07:28:08;;;;;;;3.92;3.52;;;;;;;-1.97;78.87;100319.73;1662934;84;20912;-76
2022/12/13 07:30:53;;;;;;;4.53;3.55;;;;;;;-1.94;78.93;100324.89;1666387;84;20954;-76
2022/12/13 07:33:39;;;;;;;5.20;3.77;;;;;;;-1.92;78.92;100327.06;1664726;84;20990;-75
2022/12/13 07:36:23;;;;;;;3.33;2.83;;;;;;;-1.88;78.90;100329.27;1665018;84;20962;-76
2022/12/13 07:39:08;;;;;;;5.40;3.37;;;;;;;-1.88;78.85;100323.80;1662768;84;20994;-76
2022/12/13 07:41:54;;;;;;;4.50;3.75;;;;;;;-1.86;78.85;100337.78;1665980;83;21486;-76
2022/12/13 07:44:39;;;;;;;4.55;3.77;;;;;;;-1.84;78.88;100328.14;1664632;84;21522;-76
2022/12/13 07:47:31;;;;;;;3.42;3.05;;;;;;;-1.79;78.87;100337.14;1665304;84;21079;-76
2022/12/13 07:50:16;;;;;;;4.22;3.40;;;;;;;-1.77;78.82;100339.31;1666846;84;21517;-76
2022/12/13 07:53:05;;;;;;;4.20;3.50;;;;;;;-1.77;78.81;100340.17;1662682;84;20927;-76
2022/12/13 07:55:50;;;;;;;6.78;3.62;;;;;;;-1.77;78.79;100338.91;1667211;81;21281;-76
2022/12/13 07:58:35;;;;;;;3.45;3.10;;;;;;;-1.77;78.83;100345.25;1666338;83;20965;-76
2022/12/13 08:01:20;;;;;;;4.25;3.40;;;;;;;-1.76;78.82;100349.91;1662483;84;20966;-76
2022/12/13 08:04:06;;;;;;;4.95;2.90;;;;;;;-1.75;78.88;100342.34;1663773;84;20958;-76
2022/12/13 08:06:51;;;;;;;5.10;2.95;;;;;;;-1.74;78.90;100350.41;1663342;84;20957;-76
2022/12/13 08:09:36;;;;;;;3.83;3.02;;;;;;;-1.72;78.93;100351.72;1665078;84;20953;-76
2022/12/13 08:12:21;;;;;;;3.27;2.98;;;;;;;-1.69;78.92;100359.41;1695076;83;20930;-76
2022/12/13 08:15:08;;;;;;;3.62;2.98;;;;;;;-1.70;78.85;100351.35;1698397;83;21505;-76
2022/12/13 08:17:55;;;;;;;4.25;3.27;;;;;;;-1.70;78.88;100354.75;1694128;83;21438;-76
2022/12/13 08:20:40;;;;;;;3.85;3.00;;;;;;;-1.70;78.81;100353.89;1688936;83;20985;-76
2022/12/13 08:23:26;;;;;;;3.30;2.52;;;;;;;-1.69;78.80;100356.47;1692288;83;21514;-76
2022/12/13 08:26:11;;;;;;;3.45;2.72;;;;;;;-1.68;78.73;100353.53;1690113;83;21033;-76
2022/12/13 08:28:56;;;;;;;2.90;2.42;;;;;;;-1.67;78.78;100352.30;1694699;83;21363;-76
2022/12/13 08:31:41;;;;;;;4.05;2.80;;;;;;;-1.63;78.75;100356.19;1692957;83;20958;-76
2022/12/13 08:34:26;;;;;;;3.25;2.50;;;;;;;-1.63;78.72;100351.98;1693580;83;20965;-76
2022/12/13 08:37:12;;;;;;;4.92;2.50;;;;;;;-1.62;78.78;100359.18;1695511;83;21513;-76
2022/12/13 08:39:56;;;;;;;2.52;2.33;;;;;;;-1.59;78.79;100361.39;1688492;83;21403;-76
2022/12/13 08:42:41;;;;;;;4.15;2.67;;;;;;;-1.54;78.76;100365.30;1694932;83;20961;-76
2022/12/13 08:45:26;;;;;;;3.98;3.02;;;;;;;-1.49;78.76;100369.69;1695990;83;20977;-76
2022/12/13 08:48:11;;;;;;;3.35;2.60;;;;;;;-1.47;78.75;100368.05;1698070;83;20922;-76
2022/12/13 08:51:06;;;;;;;4.00;2.55;;;;;;;-1.44;78.71;100371.08;1697769;83;21037;-76
2022/12/13 08:53:51;;;;;;;5.45;3.12;;;;;;;-1.42;78.75;100370.72;1695026;83;20925;-76
2022/12/13 08:56:36;;;;;;;3.35;3.02;;;;;;;-1.39;78.75;100370.39;1697104;83;21367;-76
2022/12/13 08:59:24;;;;;;;4.20;2.83;;;;;;;-1.39;78.72;100380.54;1698092;83;20980;-76
2022/12/13 09:02:13;;;;;;;4.42;2.85;;;;;;;-1.37;78.70;100376.37;1697366;83;21021;-76
2022/12/13 09:04:58;;;;;;;3.75;3.35;;;;;;;-1.37;78.68;100377.64;1696994;83;21403;-76
2022/12/13 09:07:43;;;;;;;5.92;3.42;;;;;;;-1.31;78.76;100386.23;1694635;83;20990;-76
2022/12/13 09:10:28;;;;;;;4.20;3.40;;;;;;;-1.27;78.75;100388.05;1693565;83;20964;-76
2022/12/13 09:13:13;;;;;;;3.98;2.80;;;;;;;-1.27;78.69;100387.63;1696622;81;21434;-76
2022/12/13 09:16:00;;;;;;;3.72;2.92;;;;;;;-1.25;78.74;100382.20;1695981;83;20973;-76
2022/12/13 09:18:45;;;;;;;4.97;2.87;;;;;;;-1.22;78.72;100384.81;1692212;83;20961;-76
2022/12/13 09:21:30;;;;;;;5.67;3.20;;;;;;;-1.17;78.75;100385.80;1694500;83;21513;-76
2022/12/13 09:24:15;;;;;;;3.75;2.62;;;;;;;-1.15;78.69;100389.66;1692222;83;20988;-76
2022/12/13 09:27:00;;;;;;;3.50;2.95;;;;;;;-1.11;78.77;100392.31;1696184;83;20963;-76
2022/12/13 09:29:46;;;;;;;4.37;2.93;;;;;;;-1.05;78.79;100386.14;1695039;83;20909;-76
2022/12/13 09:32:31;;;;;;;4.97;2.85;;;;;;;-1.01;78.68;100382.83;1694121;83;21046;-76
2022/12/13 09:35:16;;;;;;;3.45;2.67;;;;;;;-0.94;78.75;100383.86;1695276;81;21351;-76
2022/12/13 09:38:01;;;;;;;2.87;2.40;;;;;;;-0.88;78.79;100384.42;1693003;83;21556;-76
2022/12/13 09:40:49;;;;;;;5.35;2.72;;;;;;;-0.83;78.74;100379.06;1694051;83;20925;-76
2022/12/13 09:43:34;;;;;;;3.67;2.75;;;;;;;-0.79;78.72;100377.91;1693190;83;21037;-76
2022/12/13 09:46:30;;;;;;;3.83;2.65;;;;;;;-0.77;78.62;100383.89;1696030;83;20946;-76
2022/12/13 09:49:33;;;;;;;3.95;2.83;;;;;;;-0.74;78.64;100378.03;1695484;83;22019;-76
2022/12/13 09:52:20;;;;;;;4.00;2.62;;;;;;;-0.76;78.57;100378.41;1694749;83;21608;-76
2022/12/13 09:55:19;;;;;;;6.40;3.37;;;;;;;-0.73;78.66;100388.23;1693518;83;20957;-76
2022/12/13 09:58:09;;;;;;;8.13;3.85;;;;;;;-0.70;78.63;100384.91;1694422;83;21382;-76
2022/12/13 10:00:56;;;;;;;4.95;3.08;;;;;;;-0.67;78.69;100383.30;1694021;83;21001;-76
2022/12/13 10:03:45;;;;;;;4.25;3.08;;;;;;;-0.60;78.66;100383.47;1697113;83;21009;-76
2022/12/13 10:06:33;;;;;;;4.97;2.85;;;;;;;-0.59;78.60;100383.91;1696427;83;20942;-76
2022/12/13 10:09:17;;;;;;;5.33;2.90;;;;;;;-0.59;78.59;100390.27;1695681;82;21402;-76
2022/12/13 10:12:03;;;;;;;2.40;1.98;;;;;;;-0.58;78.60;100394.11;1679703;83;20990;-76
2022/12/13 10:14:56;;;;;;;2.90;2.20;;;;;;;-0.53;78.65;100394.22;1665968;84;21367;-76
2022/12/13 10:17:46;;;;;;;2.92;2.55;;;;;;;-0.51;78.53;100392.55;1663163;84;20906;-76
2022/12/13 10:20:29;;;;;;;3.17;2.20;;;;;;;-0.52;78.53;100398.04;1666343;83;20958;-76
2022/12/13 10:23:13;;;;;;;2.90;2.27;;;;;;;-0.51;78.56;100402.30;1660431;84;21549;-76
2022/12/13 10:25:58;;;;;;;2.20;2.00;;;;;;;-0.48;78.55;100397.30;1660792;84;20982;-76
2022/12/13 10:28:43;;;;;;;2.35;1.80;;;;;;;-0.45;78.55;100399.05;1662819;84;20966;-76
2022/12/13 10:31:29;;;;;;;2.75;2.45;;;;;;;-0.45;78.49;100401.18;1663289;84;21527;-76
2022/12/13 10:34:25;;;;;;;4.53;2.30;;;;;;;-0.46;78.49;100400.73;1662335;84;20996;-76
2022/12/13 10:37:26;;;;;;;2.75;2.37;;;;;;;-0.46;78.49;100400.73;1660830;84;20969;-76
2022/12/13 10:40:36;;;;;;;2.35;1.80;;;;;;;-0.41;78.55;100393.23;1653769;84;20910;-76
2022/12/13 10:43:26;;;;;;;4.12;2.08;;;;;;;-0.37;78.50;100388.67;1665875;83;20942;-76
2022/12/13 10:46:19;;;;;;;3.30;2.30;;;;;;;-0.37;78.42;100392.48;1666848;84;20923;-76
2022/12/13 10:49:15;;;;;;;2.85;2.25;;;;;;;-0.39;78.39;100390.31;1667035;84;20962;-76
2022/12/13 10:52:01;;;;;;;3.52;2.83;;;;;;;-0.38;78.47;100388.22;1665713;84;21422;-76
2022/12/13 10:54:49;;;;;;;3.42;2.30;;;;;;;-0.41;78.37;100389.01;1659883;84;20895;-76
2022/12/13 10:57:34;;;;;;;3.80;2.72;;;;;;;-0.42;78.37;100392.78;1658925;83;21333;-76
2022/12/13 11:00:45;;;;;;;4.15;2.72;;;;;;;-0.44;78.41;100384.27;1659544;82;20937;-76
2022/12/13 11:03:33;;;;;;;4.75;2.95;;;;;;;-0.42;78.28;100383.89;1657868;84;20899;-76
2022/12/13 11:06:18;;;;;;;4.92;2.70;;;;;;;-0.43;78.37;100384.71;1654862;84;20918;-76
2022/12/13 11:09:17;;;;;;;4.53;2.60;;;;;;;-0.39;78.41;100386.09;1656073;84;20942;-76
2022/12/13 11:12:13;;;;;;;4.08;2.87;;;;;;;-0.34;78.39;100383.66;1660007;84;21442;-76
2022/12/13 11:15:05;;;;;;;3.58;2.20;;;;;;;-0.33;78.38;100379.03;1663226;81;21435;-76
2022/12/13 11:17:53;;;;;;;3.72;2.42;;;;;;;-0.38;78.29;100382.73;1663031;84;21831;-76
2022/12/13 11:20:43;;;;;;;5.05;2.58;;;;;;;-0.39;78.33;100375.08;1660606;84;21352;-75
2022/12/13 11:23:42;;;;;;;3.33;2.25;;;;;;;-0.37;78.35;100378.09;1663682;84;20955;-76
2022/12/13 11:26:30;;;;;;;2.83;2.22;;;;;;;-0.37;78.30;100383.18;1654391;84;20917;-76
2022/12/13 11:29:23;;;;;;;3.52;2.35;;;;;;;-0.32;78.35;100385.83;1657205;84;20975;-76
2022/12/13 11:32:22;;;;;;;2.20;2.00;;;;;;;-0.30;78.31;100382.91;1665245;84;21376;-76
2022/12/13 11:35:30;;;;;;;2.90;1.87;;;;;;;-0.32;78.18;100387.10;1660534;83;20961;-76
2022/12/13 11:38:36;;;;;;;4.20;2.33;;;;;;;-0.32;78.18;100382.44;1662088;84;21399;-76
2022/12/13 11:41:37;;;;;;;2.20;1.67;;;;;;;-0.32;78.20;100392.59;1662918;84;21388;-76
2022/12/13 11:44:48;;;;;;;2.47;1.80;;;;;;;-0.36;78.08;100388.70;1661045;84;21372;-76
2022/12/13 11:47:38;;;;;;;2.22;1.80;;;;;;;-0.39;78.10;100382.28;1667407;84;20922;-76
2022/12/13 11:50:31;;;;;;;4.42;2.20;;;;;;;-0.39;78.15;100385.23;1667622;84;20994;-76
2022/12/13 11:53:33;;;;;;;2.80;2.00;;;;;;;-0.42;78.01;100386.02;1654001;84;20930;-76
2022/12/13 11:56:37;;;;;;;5.60;2.25;;;;;;;-0.41;78.12;100395.77;1665181;84;20922;-76
2022/12/13 11:59:48;;;;;;;8.55;4.20;;;;;;;-0.44;78.07;100399.50;1665611;84;20922;-76
2022/12/13 12:02:37;;;;;;;9.90;3.25;;;;;;;-0.44;78.09;100399.50;1665645;84;21600;-76
2022/12/13 12:05:35;;;;;;;5.37;3.37;;;;;;;-0.43;78.08;100410.11;1668027;83;20971;-76
2022/12/13 12:08:31;;;;;;;4.20;2.30;;;;;;;-0.41;78.08;100407.20;1667129;84;21025;-76
2022/12/13 12:11:39;;;;;;;;;;;;;;;-0.46;78.01;100407.08;1669641;84;21014;-75
2022/12/13 12:14:56;;;;;;;3.87;2.05;;;;;;;-0.49;77.82;100408.27;1667965;84;20137;-76
2022/12/13 12:17:41;;;;;;;2.95;2.17;;;;;;;-0.48;78.00;100411.67;1674497;84;21789;-76
2022/12/13 12:20:52;;;;;;;2.70;2.08;;;;;;;-0.45;78.06;100415.56;1711112;83;20945;-76
2022/12/13 12:24:01;;;;;;;2.67;1.87;;;;;;;-0.41;78.04;100428.38;1708389;82;21445;-76
2022/12/13 12:27:06;;;;;;;2.45;1.85;;;;;;;-0.39;78.05;100420.38;1695892;83;21548;-75
2022/12/13 12:30:06;;;;;;;2.80;2.40;;;;;;;-0.36;78.02;100431.03;1708011;83;22133;-75
2022/12/13 12:33:18;;;;;;;3.20;2.40;;;;;;;-0.37;77.94;100426.77;1558936;82;5000804;-74
2022/12/13 12:36:31;;;;;;;2.90;2.47;;;;;;;-0.37;78.00;100424.23;1712033;82;20924;-75
2022/12/13 12:39:35;;;;;;;2.90;2.60;;;;;;;-0.34;78.00;100428.98;1713201;82;21481;-75
2022/12/13 12:42:51;;;;;;;3.92;2.75;;;;;;;-0.30;77.98;100426.11;1712632;82;21575;-75
2022/12/13 12:46:08;;;;;;;3.33;2.27;;;;;;;-0.28;77.93;100433.77;1710510;82;20908;-75
2022/12/13 12:49:17;;;;;;;3.35;2.33;;;;;;;-0.31;77.87;100433.69;1711718;81;21451;-76
2022/12/13 12:52:39;;;;;;;3.25;2.62;;;;;;;-0.33;77.88;100428.57;1662603;83;21520;-75
2022/12/13 12:55:49;;;;;;;3.45;2.87;;;;;;;-0.30;77.92;100432.87;1664016;83;20975;-75
2022/12/13 12:58:47;;;;;;;3.40;2.60;;;;;;;-0.32;77.85;100428.16;1630187;85;21558;-74
2022/12/13 13:02:21;;;;;;;5.78;2.62;;;;;;;-0.35;77.87;100433.61;1648667;84;20953;-75
2022/12/13 13:05:25;;;;;;;3.87;3.13;;;;;;;-0.33;77.87;100436.19;1648154;84;20941;-75
2022/12/13 13:08:15;;;;;;;2.83;2.60;;;;;;;-0.36;77.81;100434.84;1648271;84;21036;-75
2022/12/13 13:11:02;;;;;;;3.33;2.60;;;;;;;-0.37;77.80;100435.25;1664872;82;20947;-75
2022/12/13 13:13:59;;;;;;;5.65;3.27;;;;;;;-0.37;77.81;100442.88;1635818;85;21027;-75
2022/12/13 13:16:44;;;;;;;5.37;3.22;;;;;;;-0.37;77.78;100440.33;1660995;83;20938;-75